createdAt,value
2018-02-14T00:02:22.516Z,8.48
2018-02-14T00:04:50.769Z,12.15
2018-02-14T00:07:18.251Z,10.88
2018-02-14T00:09:46.503Z,11.80
2018-02-14T00:12:14.063Z,9.82
2018-02-14T00:14:41.548Z,10.98
2018-02-14T00:17:16.806Z,11.18
2018-02-14T00:19:44.289Z,8.68
2018-02-14T00:22:11.771Z,11.65
2018-02-14T00:24:39.259Z,10.82
2018-02-14T00:27:07.497Z,9.38
2018-02-14T00:29:34.996Z,12.68
2018-02-14T00:32:03.234Z,13.85
2018-02-14T00:34:30.720Z,10.30
2018-02-14T00:36:58.997Z,9.95
2018-02-14T00:39:26.484Z,13.05
2018-02-14T00:41:53.957Z,10.43
2018-02-14T00:44:21.455Z,10.65
2018-02-14T00:46:48.936Z,10.38
2018-02-14T00:49:17.187Z,14.18
2018-02-14T00:51:44.655Z,12.48
2018-02-14T00:54:12.139Z,11.75
2018-02-14T00:56:39.624Z,13.43
2018-02-14T00:59:07.092Z,8.77
2018-02-14T01:01:34.562Z,9.45
2018-02-14T01:04:02.064Z,7.70
2018-02-14T01:06:30.307Z,14.70
2018-02-14T01:08:57.807Z,11.20
2018-02-14T01:11:26.053Z,8.52
2018-02-14T01:13:53.531Z,9.77
2018-02-14T01:16:21.775Z,10.10
2018-02-14T01:18:49.259Z,9.95
2018-02-14T01:21:16.730Z,12.63
2018-02-14T01:23:44.974Z,11.55
2018-02-14T01:26:12.471Z,10.93
2018-02-14T01:28:39.941Z,7.55
2018-02-14T01:31:07.446Z,10.25
2018-02-14T01:33:34.922Z,9.30
2018-02-14T01:36:02.408Z,10.35
2018-02-14T01:38:29.879Z,9.50
2018-02-14T01:40:57.376Z,9.50
2018-02-14T01:43:24.861Z,9.43
2018-02-14T01:45:53.110Z,10.13
2018-02-14T01:48:20.582Z,7.78
2018-02-14T01:50:48.070Z,12.73
2018-02-14T01:53:15.545Z,7.95
2018-02-14T01:55:43.022Z,8.30
2018-02-14T01:58:10.499Z,8.07
2018-02-14T02:00:37.987Z,11.05
2018-02-14T02:03:06.238Z,11.32
2018-02-14T02:08:08.420Z,10.90
2018-02-14T02:10:35.891Z,8.65
2018-02-14T02:13:03.363Z,8.35
2018-02-14T02:15:31.609Z,13.82
2018-02-14T02:17:59.086Z,12.93
2018-02-14T02:20:26.573Z,12.25
2018-02-14T02:22:54.053Z,11.05
2018-02-14T02:25:21.535Z,14.30
2018-02-14T02:27:49.041Z,12.48
2018-02-14T02:30:17.296Z,10.90
2018-02-14T02:32:44.769Z,12.13
2018-02-14T02:35:13.021Z,13.30
2018-02-14T02:37:40.495Z,15.40
2018-02-14T02:40:20.670Z,10.52
2018-02-14T02:43:05.284Z,13.10
2018-02-14T02:45:32.807Z,14.10
2018-02-14T02:48:00.292Z,15.65
2018-02-14T02:50:27.764Z,11.50
2018-02-14T02:52:55.247Z,10.38
2018-02-14T02:55:23.488Z,9.95
2018-02-14T02:57:50.960Z,10.10
2018-02-14T03:00:18.460Z,15.20
2018-02-14T03:02:45.933Z,14.52
2018-02-14T03:05:13.422Z,12.85
2018-02-14T03:07:40.894Z,12.05
2018-02-14T03:10:08.382Z,14.63
2018-02-14T03:12:36.615Z,8.40
2018-02-14T03:15:04.103Z,15.52
2018-02-14T03:17:32.342Z,10.55
2018-02-14T03:20:00.593Z,8.23
2018-02-14T03:22:28.053Z,10.50
2018-02-14T03:24:55.538Z,13.13
2018-02-14T03:27:23.774Z,11.20
2018-02-14T03:29:51.272Z,15.73
2018-02-14T03:32:18.735Z,12.10
2018-02-14T03:34:46.221Z,14.70
2018-02-14T03:37:14.456Z,9.60
2018-02-14T03:39:41.938Z,7.55
2018-02-14T03:42:09.410Z,8.88
2018-02-14T03:44:37.646Z,12.52
2018-02-14T03:47:05.128Z,10.90
2018-02-14T03:49:32.605Z,10.40
2018-02-14T03:52:00.850Z,11.35
2018-02-14T03:54:28.939Z,10.40
2018-02-14T03:56:56.422Z,8.55
2018-02-14T03:59:23.923Z,8.25
2018-02-14T04:01:51.396Z,11.23
2018-02-14T04:04:18.870Z,12.55
2018-02-14T04:06:46.344Z,10.73
2018-02-14T04:09:14.583Z,9.20
2018-02-14T04:11:42.070Z,12.90
2018-02-14T04:14:09.534Z,18.17
2018-02-14T04:16:37.778Z,11.60
2018-02-14T04:19:05.245Z,9.35
2018-02-14T04:21:32.739Z,11.68
2018-02-14T04:24:00.214Z,10.40
2018-02-14T04:26:27.701Z,10.13
2018-02-14T04:28:55.166Z,9.80
2018-02-14T04:31:22.645Z,17.87
2018-02-14T04:33:50.102Z,9.98
2018-02-14T04:36:17.583Z,11.85
2018-02-14T04:38:45.822Z,11.73
2018-02-14T04:41:13.322Z,11.63
2018-02-14T04:43:40.790Z,10.10
2018-02-14T04:46:08.279Z,12.43
2018-02-14T04:48:35.746Z,9.82
2018-02-14T04:51:03.229Z,9.63
2018-02-14T04:53:31.529Z,13.57
2018-02-14T04:55:59.759Z,12.35
2018-02-14T04:58:27.233Z,9.98
2018-02-14T05:00:54.718Z,13.93
2018-02-14T05:03:22.948Z,15.93
2018-02-14T05:05:51.212Z,16.40
2018-02-14T05:08:18.665Z,12.90
2018-02-14T05:10:46.148Z,13.32
2018-02-14T05:13:13.614Z,9.77
2018-02-14T05:15:41.093Z,12.65
2018-02-14T05:18:09.329Z,11.90
2018-02-14T05:20:36.809Z,13.65
2018-02-14T05:23:04.270Z,10.15
2018-02-14T05:25:31.758Z,12.40
2018-02-14T05:27:59.977Z,8.07
2018-02-14T05:30:27.474Z,13.75
2018-02-14T05:32:55.710Z,12.90
2018-02-14T05:35:23.214Z,12.15
2018-02-14T05:37:51.469Z,12.63
2018-02-14T05:40:18.934Z,10.35
2018-02-14T05:42:46.417Z,12.27
2018-02-14T05:45:13.903Z,11.25
2018-02-14T05:47:41.415Z,11.65
2018-02-14T05:50:09.686Z,20.15
2018-02-14T05:52:37.174Z,9.55
2018-02-14T05:55:04.632Z,18.20
2018-02-14T05:57:32.117Z,15.85
2018-02-14T05:59:59.585Z,13.88
2018-02-14T06:02:27.061Z,18.45
2018-02-14T06:04:54.522Z,14.02
2018-02-14T06:07:21.989Z,14.68
2018-02-14T06:09:49.481Z,11.95
2018-02-14T06:12:16.958Z,13.80
2018-02-14T06:14:44.428Z,13.55
2018-02-14T06:17:11.907Z,17.83
2018-02-14T06:19:39.641Z,12.10
2018-02-14T06:22:07.134Z,15.60
2018-02-14T06:24:34.654Z,12.80
2018-02-14T06:27:02.144Z,11.70
2018-02-14T06:29:29.612Z,15.88
2018-02-14T06:31:57.092Z,18.98
2018-02-14T06:34:25.330Z,16.23
2018-02-14T06:36:52.801Z,16.62
2018-02-14T06:39:20.261Z,15.43
2018-02-14T06:41:47.746Z,10.18
2018-02-14T06:44:15.984Z,10.48
2018-02-14T06:46:43.470Z,11.55
2018-02-14T06:49:11.715Z,10.05
2018-02-14T06:51:39.199Z,9.98
2018-02-14T06:54:06.670Z,9.57
2018-02-14T06:56:34.928Z,15.40
2018-02-14T06:59:02.416Z,10.85
2018-02-14T07:01:29.891Z,11.73
2018-02-14T07:03:57.367Z,12.30
2018-02-14T07:06:24.834Z,10.60
2018-02-14T07:08:52.686Z,13.05
2018-02-14T07:11:20.158Z,12.05
2018-02-14T07:13:47.623Z,10.50
2018-02-14T07:16:15.106Z,8.23
2018-02-14T07:18:43.333Z,11.05
2018-02-14T07:21:10.823Z,12.35
2018-02-14T07:23:38.289Z,13.18
2018-02-14T07:26:06.413Z,11.10
2018-02-14T07:28:33.874Z,10.70
2018-02-14T07:31:01.349Z,14.75
2018-02-14T07:33:28.823Z,15.50
2018-02-14T07:35:56.954Z,15.85
2018-02-14T07:38:24.422Z,15.52
2018-02-14T07:40:51.884Z,12.98
2018-02-14T07:43:19.357Z,11.77
2018-02-14T07:45:46.849Z,12.00
2018-02-14T07:48:14.312Z,10.32
2018-02-14T07:50:42.553Z,12.50
2018-02-14T07:53:10.043Z,13.38
2018-02-14T07:55:38.261Z,9.35
2018-02-14T07:58:05.747Z,12.48
2018-02-14T08:00:33.224Z,12.07
2018-02-14T08:03:00.702Z,16.10
2018-02-14T08:05:28.945Z,15.05
2018-02-14T08:07:56.417Z,11.18
2018-02-14T08:10:23.894Z,14.25
2018-02-14T08:12:52.145Z,10.50
2018-02-14T08:15:19.624Z,12.70
2018-02-14T08:17:47.869Z,14.77
2018-02-14T08:20:15.346Z,15.18
2018-02-14T08:22:43.598Z,15.82
2018-02-14T08:25:11.089Z,15.88
2018-02-14T08:27:39.334Z,13.65
2018-02-14T08:30:06.826Z,15.55
2018-02-14T08:32:35.114Z,16.48
2018-02-14T08:35:03.345Z,21.25
2018-02-14T08:37:30.836Z,17.87
2018-02-14T08:39:59.065Z,14.60
2018-02-14T08:42:26.551Z,15.35
2018-02-14T08:44:54.029Z,17.60
2018-02-14T08:47:22.281Z,23.45
2018-02-14T08:49:49.764Z,15.10
2018-02-14T08:52:18.020Z,15.95
2018-02-14T08:54:45.500Z,21.00
2018-02-14T08:57:13.750Z,16.20
2018-02-14T08:59:41.230Z,16.77
2018-02-14T09:02:09.474Z,15.18
2018-02-14T09:04:36.950Z,21.87
2018-02-14T09:07:04.447Z,16.27
2018-02-14T09:09:31.917Z,19.97
2018-02-14T09:11:59.395Z,17.97
2018-02-14T09:14:26.862Z,18.83
2018-02-14T09:16:54.349Z,18.53
2018-02-14T09:19:22.589Z,19.00
2018-02-14T09:21:50.073Z,19.00
2018-02-14T09:24:17.553Z,23.87
2018-02-14T09:26:45.022Z,16.37
2018-02-14T09:29:12.499Z,20.10
2018-02-14T09:31:39.978Z,16.23
2018-02-14T09:34:07.466Z,20.27
2018-02-14T09:36:34.925Z,19.07
2018-02-14T09:39:02.408Z,20.47
2018-02-14T09:41:30.636Z,23.50
2018-02-14T09:43:58.110Z,24.90
2018-02-14T09:46:25.581Z,20.07
2018-02-14T09:48:53.063Z,21.70
2018-02-14T09:51:20.535Z,23.00
2018-02-14T09:53:48.035Z,30.33
2018-02-14T09:56:15.497Z,21.37
2018-02-14T09:58:42.967Z,21.17
2018-02-14T10:01:10.430Z,20.10
2018-02-14T10:03:38.677Z,21.90
2018-02-14T10:06:07.453Z,18.90
2018-02-14T10:08:34.930Z,23.93
2018-02-14T10:11:02.399Z,19.73
2018-02-14T10:13:29.928Z,22.63
2018-02-14T10:15:57.411Z,18.53
2018-02-14T10:18:24.886Z,22.97
2018-02-14T10:20:52.358Z,18.67
2018-02-14T10:23:20.598Z,19.30
2018-02-14T10:25:48.066Z,18.93
2018-02-14T10:28:15.541Z,20.33
2018-02-14T10:30:43.761Z,20.47
2018-02-14T10:33:11.242Z,24.53
2018-02-14T10:35:38.706Z,16.27
2018-02-14T10:38:06.205Z,17.33
2018-02-14T10:40:33.686Z,16.43
2018-02-14T10:43:01.170Z,20.40
2018-02-14T10:45:28.630Z,16.37
2018-02-14T10:47:56.116Z,16.87
2018-02-14T10:50:23.598Z,15.67
2018-02-14T10:52:51.830Z,10.63
2018-02-14T10:55:19.301Z,18.03
2018-02-14T10:57:46.769Z,23.43
2018-02-14T11:00:14.686Z,12.70
2018-02-14T11:02:48.860Z,14.90
2018-02-14T11:05:22.817Z,16.10
2018-02-14T11:07:50.299Z,14.60
2018-02-14T11:10:17.774Z,14.03
2018-02-14T11:12:45.253Z,16.27
2018-02-14T11:15:13.482Z,15.00
2018-02-14T11:17:40.968Z,11.47
2018-02-14T11:20:08.464Z,13.40
2018-02-14T11:22:36.693Z,17.20
2018-02-14T11:25:04.167Z,17.30
2018-02-14T11:27:31.630Z,11.70
2018-02-14T11:29:59.864Z,13.40
2018-02-14T11:32:27.342Z,10.37
2018-02-14T11:34:54.817Z,13.63
2018-02-14T11:37:23.034Z,8.83
2018-02-14T11:39:50.510Z,11.13
2018-02-14T11:42:17.973Z,9.97
2018-02-14T11:44:45.442Z,9.60
2018-02-14T11:47:12.909Z,11.00
2018-02-14T11:49:40.385Z,7.63
2018-02-14T11:52:07.848Z,14.30
2018-02-14T11:54:36.082Z,10.87
2018-02-14T11:57:03.564Z,11.03
2018-02-14T11:59:31.066Z,8.43
2018-02-14T12:01:58.526Z,8.90
2018-02-14T12:04:26.983Z,9.30
2018-02-14T12:06:55.214Z,12.00
2018-02-14T12:09:22.697Z,9.00
2018-02-14T12:11:50.161Z,10.77
2018-02-14T12:14:17.630Z,9.23
2018-02-14T12:16:45.857Z,8.23
2018-02-14T12:19:13.330Z,7.50
2018-02-14T12:21:40.800Z,10.07
2018-02-14T12:24:08.274Z,8.37
2018-02-14T12:26:35.739Z,8.07
2018-02-14T12:29:03.199Z,8.30
2018-02-14T12:31:31.437Z,13.47
2018-02-14T12:33:58.915Z,8.23
2018-02-14T12:36:26.375Z,7.43
2018-02-14T12:38:53.858Z,7.43
2018-02-14T12:41:22.083Z,8.83
2018-02-14T12:43:49.561Z,6.53
2018-02-14T12:46:17.024Z,8.30
2018-02-14T12:48:44.482Z,8.10
2018-02-14T12:51:11.983Z,4.70
2018-02-14T12:53:39.455Z,5.93
2018-02-14T12:56:06.925Z,4.20
2018-02-14T12:58:34.394Z,5.63
2018-02-14T13:01:01.865Z,5.87
2018-02-14T13:03:29.334Z,7.30
2018-02-14T13:05:56.797Z,6.47
2018-02-14T13:08:25.041Z,5.27
2018-02-14T13:10:52.506Z,5.30
2018-02-14T13:13:19.990Z,7.37
2018-02-14T13:15:47.447Z,5.67
2018-02-14T13:18:14.923Z,5.97
2018-02-14T13:20:43.171Z,5.10
2018-02-14T13:23:10.629Z,7.57
2018-02-14T13:25:38.094Z,4.40
2018-02-14T13:28:05.552Z,6.47
2018-02-14T13:30:33.040Z,7.10
2018-02-14T13:33:01.255Z,7.33
2018-02-14T13:35:28.764Z,6.80
2018-02-14T13:37:57.017Z,5.57
2018-02-14T13:40:24.498Z,7.27
2018-02-14T13:42:52.732Z,8.10
2018-02-14T13:45:20.210Z,5.27
2018-02-14T13:47:47.666Z,6.40
2018-02-14T13:50:15.141Z,9.23
2018-02-14T13:52:42.596Z,9.53
2018-02-14T13:55:10.830Z,9.07
2018-02-14T13:57:38.296Z,7.77
2018-02-14T14:00:05.780Z,10.80
2018-02-14T14:02:34.130Z,9.20
2018-02-14T14:05:01.604Z,6.80
2018-02-14T14:07:29.902Z,11.87
2018-02-14T14:09:58.146Z,10.23
2018-02-14T14:12:26.380Z,10.67
2018-02-14T14:14:53.862Z,8.10
2018-02-14T14:17:21.328Z,5.10
2018-02-14T14:19:48.793Z,7.13
2018-02-14T14:22:16.249Z,7.93
2018-02-14T14:24:43.724Z,12.70
2018-02-14T14:27:11.190Z,6.70
2018-02-14T14:29:38.671Z,8.67
2018-02-14T14:32:07.290Z,8.30
2018-02-14T14:34:34.754Z,7.40
2018-02-14T14:37:02.214Z,7.13
2018-02-14T14:39:29.702Z,7.43
2018-02-14T14:41:57.156Z,6.73
2018-02-14T14:44:24.617Z,8.73
2018-02-14T14:46:52.086Z,9.53
2018-02-14T14:49:19.553Z,7.70
2018-02-14T14:51:47.779Z,8.60
2018-02-14T14:54:15.274Z,10.33
2018-02-14T14:56:42.729Z,6.50
2018-02-14T14:59:10.231Z,10.13
2018-02-14T15:01:37.705Z,6.80
2018-02-14T15:04:05.187Z,7.70
2018-02-14T15:06:33.421Z,6.73
2018-02-14T15:09:00.881Z,6.73
2018-02-14T15:11:28.342Z,7.20
2018-02-14T15:13:55.845Z,11.20
2018-02-14T15:16:23.288Z,7.00
2018-02-14T15:18:50.750Z,10.80
2018-02-14T15:21:18.225Z,13.27
2018-02-14T15:23:45.700Z,9.07
2018-02-14T15:26:13.167Z,16.23
2018-02-14T15:28:41.407Z,9.53
2018-02-14T15:31:08.937Z,17.53
2018-02-14T15:33:37.150Z,12.17
2018-02-14T15:36:04.622Z,8.93
2018-02-14T15:38:32.084Z,11.30
2018-02-14T15:40:59.546Z,9.57
2018-02-14T15:43:27.002Z,12.50
2018-02-14T15:45:54.477Z,11.27
2018-02-14T15:48:22.717Z,10.20
2018-02-14T15:50:50.177Z,8.27
2018-02-14T15:53:17.670Z,11.07
2018-02-14T15:55:45.915Z,8.40
2018-02-14T15:58:13.377Z,11.90
2018-02-14T16:00:40.842Z,13.40
2018-02-14T16:03:08.307Z,13.07
2018-02-14T16:05:36.547Z,10.10
2018-02-14T16:08:04.019Z,11.83
2018-02-14T16:10:31.481Z,17.33
2018-02-14T16:12:59.130Z,15.00
2018-02-14T16:15:26.440Z,13.10
2018-02-14T16:17:54.674Z,15.00
2018-02-14T16:20:22.141Z,16.10
2018-02-14T16:22:49.601Z,11.40
2018-02-14T16:25:17.090Z,13.43
2018-02-14T16:27:45.315Z,11.60
2018-02-14T16:30:12.785Z,11.13
2018-02-14T16:32:40.439Z,15.83
2018-02-14T16:35:07.910Z,12.33
2018-02-14T16:37:35.373Z,13.67
2018-02-14T16:40:02.851Z,16.97
2018-02-14T16:42:31.077Z,12.27
2018-02-14T16:44:58.641Z,12.17
2018-02-14T16:47:26.101Z,15.40
2018-02-14T16:49:53.566Z,10.37
2018-02-14T16:52:21.043Z,17.07
2018-02-14T16:54:49.284Z,13.73
2018-02-14T16:57:16.754Z,11.57
2018-02-14T16:59:44.218Z,12.03
2018-02-14T17:02:11.701Z,14.60
2018-02-14T17:04:39.191Z,14.50
2018-02-14T17:07:07.392Z,13.87
2018-02-14T17:09:34.862Z,17.27
2018-02-14T17:12:02.330Z,17.60
2018-02-14T17:14:29.804Z,19.40
2018-02-14T17:16:57.652Z,24.33
2018-02-14T17:19:25.388Z,27.30
2018-02-14T17:21:52.848Z,31.43
2018-02-14T17:24:20.308Z,21.30
2018-02-14T17:26:47.807Z,23.57
2018-02-14T17:29:15.269Z,23.93
2018-02-14T17:31:43.510Z,26.67
2018-02-14T17:34:10.978Z,17.57
2018-02-14T17:36:38.454Z,22.57
2018-02-14T17:39:06.682Z,16.50
2018-02-14T17:41:34.158Z,14.63
2018-02-14T17:44:01.619Z,18.27
2018-02-14T17:46:29.094Z,12.73
2018-02-14T17:48:56.553Z,10.60
2018-02-14T17:51:24.032Z,13.70
2018-02-14T17:53:52.254Z,12.47
2018-02-14T17:56:19.757Z,15.57
2018-02-14T17:58:47.981Z,13.07
2018-02-14T18:01:15.453Z,18.13
2018-02-14T18:03:42.924Z,16.90
2018-02-14T18:06:10.405Z,13.97
2018-02-14T18:08:38.643Z,17.80
2018-02-14T18:11:06.127Z,23.80
2018-02-14T18:13:33.595Z,19.93
2018-02-14T18:16:01.074Z,19.50
2018-02-14T18:18:29.316Z,22.20
2018-02-14T18:20:56.818Z,20.70
2018-02-14T18:23:25.114Z,32.97
2018-02-14T18:25:52.599Z,23.60
2018-02-14T18:28:20.061Z,22.03
2018-02-14T18:30:47.534Z,17.40
2018-02-14T18:33:15.016Z,19.97
2018-02-14T18:35:43.260Z,24.00
2018-02-14T18:38:10.725Z,27.57
2018-02-14T18:40:38.194Z,22.30
2018-02-14T18:43:05.668Z,28.43
2018-02-14T18:45:33.918Z,27.27
2018-02-14T18:48:01.380Z,21.67
2018-02-14T18:50:28.856Z,22.83
2018-02-14T18:52:57.094Z,21.90
2018-02-14T18:55:24.562Z,26.47
2018-02-14T18:57:52.049Z,21.10
2018-02-14T19:00:20.300Z,28.10
2018-02-14T19:02:47.775Z,25.40
2018-02-14T19:05:16.021Z,25.27
2018-02-14T19:07:43.477Z,23.67
2018-02-14T19:10:10.936Z,22.87
2018-02-14T19:12:38.438Z,25.57
2018-02-14T19:15:05.882Z,33.63
2018-02-14T19:17:33.345Z,27.17
2018-02-14T19:20:01.575Z,32.03
2018-02-14T19:22:29.066Z,26.63
2018-02-14T19:24:56.536Z,30.93
2018-02-14T19:27:24.795Z,27.67
2018-02-14T19:29:52.266Z,26.37
2018-02-14T19:32:19.738Z,23.07
2018-02-14T19:34:47.970Z,28.63
2018-02-14T19:37:15.449Z,20.87
2018-02-14T19:39:42.902Z,25.07
2018-02-14T19:42:10.371Z,26.40
2018-02-14T19:44:38.996Z,24.10
2018-02-14T19:47:06.466Z,22.30
2018-02-14T19:49:33.930Z,24.37
2018-02-14T19:52:01.406Z,27.13
2018-02-14T19:54:28.870Z,33.03
2018-02-14T19:56:56.341Z,22.50
2018-02-14T19:59:23.842Z,29.73
2018-02-14T20:01:51.325Z,24.13
2018-02-14T20:04:19.688Z,23.67
2018-02-14T20:06:47.162Z,23.90
2018-02-14T20:09:14.626Z,24.97
2018-02-14T20:11:42.107Z,25.73
2018-02-14T20:14:09.575Z,22.80
2018-02-14T20:16:37.821Z,21.30
2018-02-14T20:19:05.292Z,30.67
2018-02-14T20:21:32.760Z,26.00
2018-02-14T20:24:00.996Z,23.63
2018-02-14T20:26:28.525Z,24.93
2018-02-14T20:28:56.873Z,21.10
2018-02-14T20:31:24.477Z,23.17
2018-02-14T20:33:51.975Z,22.43
2018-02-14T20:36:19.468Z,27.83
2018-02-14T20:38:47.698Z,25.73
2018-02-14T20:41:15.166Z,26.03
2018-02-14T20:43:42.630Z,24.00
2018-02-14T20:46:10.096Z,24.50
2018-02-14T20:48:37.570Z,23.13
2018-02-14T20:51:05.834Z,25.60
2018-02-14T20:53:33.301Z,23.70
2018-02-14T20:56:01.549Z,29.13
2018-02-14T20:58:29.019Z,28.70
2018-02-14T21:00:56.492Z,29.03
2018-02-14T21:03:24.738Z,22.50
2018-02-14T21:05:52.206Z,23.10
2018-02-14T21:08:19.682Z,28.40
2018-02-14T21:10:47.918Z,23.80
2018-02-14T21:13:15.396Z,34.17
2018-02-14T21:15:42.865Z,33.63
2018-02-14T21:18:10.580Z,45.37
2018-02-14T21:20:38.039Z,28.67
2018-02-14T21:23:05.518Z,26.47
2018-02-14T21:25:32.986Z,29.73
2018-02-14T21:28:00.473Z,27.53
2018-02-14T21:30:28.703Z,30.20
2018-02-14T21:32:56.174Z,30.40
2018-02-14T21:35:23.644Z,24.50
2018-02-14T21:37:51.110Z,31.00
2018-02-14T21:40:19.381Z,27.07
2018-02-14T21:42:46.898Z,29.73
2018-02-14T21:45:14.374Z,29.10
2018-02-14T21:47:41.854Z,25.83
2018-02-14T21:50:09.322Z,29.17
2018-02-14T21:52:37.513Z,21.40
2018-02-14T21:55:05.742Z,24.97
2018-02-14T21:57:33.226Z,25.53
2018-02-14T22:00:00.714Z,22.17
2018-02-14T22:02:42.659Z,25.13
2018-02-14T22:05:10.130Z,21.23
2018-02-14T22:07:37.620Z,23.50
2018-02-14T22:10:05.854Z,20.63
2018-02-14T22:12:34.089Z,26.23
2018-02-14T22:15:01.559Z,24.87
2018-02-14T22:17:29.042Z,20.83
2018-02-14T22:19:56.512Z,24.57
2018-02-14T22:22:23.991Z,18.43
2018-02-14T22:24:51.458Z,22.23
2018-02-14T22:27:19.698Z,23.07
2018-02-14T22:29:47.157Z,27.50
2018-02-14T22:32:15.393Z,22.23
2018-02-14T22:34:42.854Z,24.57
2018-02-14T22:37:10.332Z,23.00
2018-02-14T22:39:37.800Z,22.87
2018-02-14T22:42:05.546Z,20.70
2018-02-14T22:44:32.999Z,23.00
2018-02-14T22:47:00.472Z,21.77
2018-02-14T22:49:27.945Z,20.40
2018-02-14T22:51:55.435Z,18.57
2018-02-14T22:54:23.672Z,19.03
2018-02-14T22:56:51.902Z,26.03
2018-02-14T22:59:19.374Z,24.47
2018-02-14T23:01:46.846Z,25.63
2018-02-14T23:04:14.317Z,22.10
2018-02-14T23:06:41.813Z,21.90
2018-02-14T23:09:09.270Z,19.73
2018-02-14T23:11:36.737Z,24.87
2018-02-14T23:14:04.984Z,20.73
2018-02-14T23:16:32.445Z,24.27
2018-02-14T23:19:00.506Z,23.97
2018-02-14T23:21:27.977Z,24.13
2018-02-14T23:23:55.454Z,24.60
2018-02-14T23:26:23.680Z,22.47
2018-02-14T23:28:51.178Z,20.13
2018-02-14T23:31:19.963Z,20.63
2018-02-14T23:33:47.434Z,23.30
2018-02-14T23:36:15.669Z,20.23
2018-02-14T23:38:43.142Z,18.77
2018-02-14T23:41:10.610Z,19.73
2018-02-14T23:43:38.084Z,20.47
2018-02-14T23:46:06.313Z,20.60
2018-02-14T23:48:33.790Z,26.43
2018-02-14T23:51:01.565Z,28.93
2018-02-14T23:53:29.033Z,28.57
2018-02-14T23:55:56.497Z,24.97
2018-02-14T23:58:23.973Z,24.17
